Terminal Aerodrome Forecast
Issued by NWS

Home | Current Version | Previous Version | Text Only | Print | Product List | Glossary On
Versions: 1 2 3 4 5 6 7 8 9 10 11 12 13 14 15 16 17 18 19
000
FTUS44 KBMX 211700
TAFANB
TAF
KANB 211726Z 2118/2218 07005KT P6SM OVC015
     FM212000 08006KT P6SM OVC020
     FM220300 06006KT P6SM OVC012
     FM220900 06007KT 5SM BR OVC006=

USA.gov is the U.S. government's official web portal to all federal, state and local government web resources and services.